Time;durP1;ratioP1;P1;durP2;ratioP2;P2;SDS_P1;SDS_P2;PMS_P1;PMS_P2;Temp;Humidity;BMP_temperature;BMP_pressure;BME280_temperature;BME280_humidity;BME280_pressure;Samples;Min_cycle;Max_cycle;Signal;HPM_P1;HPM_P2
2022/08/26 00:00:20;;;;;;;4.43;3.57;;;;;;;;;;5012314;28;20166;-80
2022/08/26 00:02:45;;;;;;;7.70;4.20;;;;;;;;;;5012584;28;20180;-80
2022/08/26 00:05:10;;;;;;;4.67;4.27;;;;;;;;;;5012704;28;20168;-81
2022/08/26 00:07:35;;;;;;;4.67;4.07;;;;;;;;;;5008525;28;20501;-81
2022/08/26 00:10:00;;;;;;;4.00;3.70;;;;;;;;;;5011159;28;20204;-80
2022/08/26 00:12:26;;;;;;;4.57;4.17;;;;;;;;;;5019438;28;20187;-80
2022/08/26 00:14:54;;;;;;;4.57;3.90;;;;;;;;;;5011044;28;20172;-77
2022/08/26 00:17:19;;;;;;;4.67;4.20;;;;;;;;;;5012549;28;20195;-80
2022/08/26 00:19:45;;;;;;;4.90;4.40;;;;;;;;;;5020590;28;20175;-79
2022/08/26 00:22:10;;;;;;;5.53;4.13;;;;;;;;;;5019568;28;20448;-79
2022/08/26 00:24:35;;;;;;;4.60;4.20;;;;;;;;;;5011499;28;20262;-77
2022/08/26 00:27:00;;;;;;;4.40;4.10;;;;;;;;;;5014114;28;20271;-81
2022/08/26 00:29:26;;;;;;;4.67;3.93;;;;;;;;;;5011990;28;20175;-80
2022/08/26 00:31:51;;;;;;;4.23;3.83;;;;;;;;;;5011105;28;20180;-80
2022/08/26 00:34:16;;;;;;;5.70;4.17;;;;;;;;;;5003670;28;20210;-80
2022/08/26 00:36:42;;;;;;;4.60;4.20;;;;;;;;;;5012126;28;20177;-79
2022/08/26 00:39:08;;;;;;;4.50;4.03;;;;;;;;;;5011948;28;20225;-78
2022/08/26 00:41:34;;;;;;;4.47;4.03;;;;;;;;;;5010323;28;20179;-81
2022/08/26 00:43:59;;;;;;;4.20;3.90;;;;;;;;;;5010710;28;20278;-79
2022/08/26 00:46:27;;;;;;;4.77;4.37;;;;;;;;;;5009737;28;20207;-79
2022/08/26 00:48:58;;;;;;;4.43;3.83;;;;;;;;;;5010794;28;20177;-80
2022/08/26 00:51:24;;;;;;;4.63;4.30;;;;;;;;;;5010734;28;20210;-81
2022/08/26 00:53:55;;;;;;;4.33;4.00;;;;;;;;;;5010974;28;20517;-80
2022/08/26 00:56:24;;;;;;;4.67;3.80;;;;;;;;;;5011504;28;20174;-81
2022/08/26 00:58:49;;;;;;;4.67;4.33;;;;;;;;;;5007365;28;20248;-80
2022/08/26 01:01:15;;;;;;;4.43;4.03;;;;;;;;;;4991997;28;20312;-79
2022/08/26 01:03:42;;;;;;;6.33;4.87;;;;;;;;;;4992058;28;20180;-79
2022/08/26 01:06:08;;;;;;;4.43;4.13;;;;;;;;;;4990816;28;20199;-80
2022/08/26 01:08:34;;;;;;;5.03;3.80;;;;;;;;;;4993548;28;20184;-80
2022/08/26 01:11:00;;;;;;;6.03;3.83;;;;;;;;;;5010109;28;20310;-81
2022/08/26 01:13:25;;;;;;;6.87;3.90;;;;;;;;;;5010072;28;20202;-80
2022/08/26 01:15:53;;;;;;;4.13;3.83;;;;;;;;;;5007233;28;20191;-78
2022/08/26 01:18:19;;;;;;;3.93;3.63;;;;;;;;;;4990681;28;20177;-80
2022/08/26 01:20:56;;;;;;;4.30;4.00;;;;;;;;;;5026329;28;20177;-81
2022/08/26 01:23:22;;;;;;;4.60;4.23;;;;;;;;;;5006796;28;20183;-79
2022/08/26 01:25:50;;;;;;;4.03;3.73;;;;;;;;;;5008289;28;20184;-80
2022/08/26 01:28:20;;;;;;;4.13;3.83;;;;;;;;;;5011010;28;20228;-80
2022/08/26 01:30:46;;;;;;;4.57;4.17;;;;;;;;;;5010080;28;20191;-80
2022/08/26 01:33:14;;;;;;;4.30;3.90;;;;;;;;;;5006425;28;20224;-80
2022/08/26 01:35:39;;;;;;;5.07;4.30;;;;;;;;;;5009798;28;20170;-78
2022/08/26 01:38:05;;;;;;;4.10;3.80;;;;;;;;;;5010851;28;20181;-80
2022/08/26 01:40:32;;;;;;;4.13;3.83;;;;;;;;;;5009826;28;20174;-80
2022/08/26 01:43:00;;;;;;;5.10;4.60;;;;;;;;;;5011165;28;20182;-80
2022/08/26 01:45:27;;;;;;;7.13;4.90;;;;;;;;;;5009834;28;20318;-79
2022/08/26 01:47:53;;;;;;;5.47;5.00;;;;;;;;;;5009829;28;20212;-80
2022/08/26 01:50:27;;;;;;;4.93;4.43;;;;;;;;;;5006498;28;20187;-80
2022/08/26 01:52:53;;;;;;;4.43;4.10;;;;;;;;;;4990265;28;20196;-81
2022/08/26 01:55:19;;;;;;;5.47;4.60;;;;;;;;;;4990394;28;20218;-80
2022/08/26 01:57:46;;;;;;;4.10;3.80;;;;;;;;;;4991099;28;20257;-79
2022/08/26 02:00:12;;;;;;;4.30;4.00;;;;;;;;;;5006135;28;20246;-78
2022/08/26 02:02:40;;;;;;;3.87;3.53;;;;;;;;;;5006536;28;20326;-78
2022/08/26 02:05:07;;;;;;;4.53;4.07;;;;;;;;;;4992780;28;20172;-78
2022/08/26 02:07:33;;;;;;;3.97;3.67;;;;;;;;;;4997305;28;20180;-80
2022/08/26 02:09:58;;;;;;;4.50;4.10;;;;;;;;;;5027256;28;20200;-80
2022/08/26 02:12:24;;;;;;;4.23;3.93;;;;;;;;;;5017093;28;20178;-80
2022/08/26 02:14:52;;;;;;;3.97;3.67;;;;;;;;;;5016049;28;20217;-78
2022/08/26 02:17:19;;;;;;;4.47;4.03;;;;;;;;;;5017146;28;20512;-81
2022/08/26 02:19:46;;;;;;;4.63;3.93;;;;;;;;;;5024980;28;20167;-80
2022/08/26 02:22:13;;;;;;;4.40;4.10;;;;;;;;;;5025666;28;20317;-79
2022/08/26 02:24:46;;;;;;;5.10;3.90;;;;;;;;;;5001437;28;20233;-78
2022/08/26 02:27:12;;;;;;;4.13;3.77;;;;;;;;;;5012755;28;20178;-81
2022/08/26 02:29:40;;;;;;;4.13;3.83;;;;;;;;;;4997526;28;20169;-80
2022/08/26 02:32:09;;;;;;;4.33;3.97;;;;;;;;;;4997214;28;20194;-81
2022/08/26 02:34:34;;;;;;;3.73;3.53;;;;;;;;;;5009401;28;20218;-78
2022/08/26 02:37:01;;;;;;;4.27;3.87;;;;;;;;;;5017149;28;20312;-81
2022/08/26 02:39:28;;;;;;;5.53;5.13;;;;;;;;;;5015967;28;20172;-78
2022/08/26 02:41:53;;;;;;;4.47;4.07;;;;;;;;;;5015584;28;20182;-80
2022/08/26 02:44:19;;;;;;;4.47;4.07;;;;;;;;;;5015715;28;20179;-80
2022/08/26 02:46:44;;;;;;;4.33;3.80;;;;;;;;;;5015447;28;20178;-81
2022/08/26 02:49:09;;;;;;;4.23;3.93;;;;;;;;;;5015583;28;20178;-80
2022/08/26 02:51:34;;;;;;;4.03;3.73;;;;;;;;;;5016021;28;20246;-78
2022/08/26 02:54:00;;;;;;;4.10;3.80;;;;;;;;;;5016791;28;20202;-80
2022/08/26 02:56:25;;;;;;;4.20;3.80;;;;;;;;;;5016907;28;20179;-81
2022/08/26 02:58:50;;;;;;;5.50;3.90;;;;;;;;;;5012319;28;20182;-81
2022/08/26 03:01:20;;;;;;;4.50;4.00;;;;;;;;;;4995629;28;20324;-79
2022/08/26 03:03:46;;;;;;;4.77;4.37;;;;;;;;;;4997458;28;20170;-80
2022/08/26 03:06:11;;;;;;;7.83;4.10;;;;;;;;;;5012503;28;20203;-78
2022/08/26 03:08:36;;;;;;;4.17;3.67;;;;;;;;;;4999157;28;20178;-79
2022/08/26 03:11:01;;;;;;;4.93;4.17;;;;;;;;;;5015221;28;20193;-77
2022/08/26 03:13:26;;;;;;;5.77;4.00;;;;;;;;;;5015677;28;20280;-79
2022/08/26 03:15:52;;;;;;;6.83;4.00;;;;;;;;;;5012275;28;20185;-80
2022/08/26 03:18:17;;;;;;;4.77;3.90;;;;;;;;;;5008447;28;20180;-79
2022/08/26 03:20:42;;;;;;;3.70;3.40;;;;;;;;;;5027261;28;20177;-81
2022/08/26 03:23:07;;;;;;;7.13;4.00;;;;;;;;;;5013119;28;20182;-79
2022/08/26 03:25:33;;;;;;;5.00;4.53;;;;;;;;;;5012530;28;20204;-80
2022/08/26 03:27:58;;;;;;;4.33;4.00;;;;;;;;;;5012079;28;20187;-81
2022/08/26 03:30:41;;;;;;;3.93;3.63;;;;;;;;;;5013292;28;20166;-80
2022/08/26 03:33:07;;;;;;;4.33;4.00;;;;;;;;;;5010753;28;20256;-83
2022/08/26 03:35:33;;;;;;;6.40;4.33;;;;;;;;;;5007415;28;20181;-83
2022/08/26 03:37:59;;;;;;;4.33;4.03;;;;;;;;;;5013776;28;20158;-82
2022/08/26 03:40:24;;;;;;;3.73;3.53;;;;;;;;;;5013187;28;20167;-81
2022/08/26 03:42:49;;;;;;;5.60;4.10;;;;;;;;;;5011727;28;20210;-82
2022/08/26 03:45:16;;;;;;;4.57;4.13;;;;;;;;;;5011364;28;20204;-82
2022/08/26 03:47:41;;;;;;;4.30;4.00;;;;;;;;;;5013022;28;20178;-80
2022/08/26 03:50:07;;;;;;;5.43;4.23;;;;;;;;;;5009008;28;20187;-82
2022/08/26 03:52:32;;;;;;;4.17;3.83;;;;;;;;;;5008238;28;20191;-83
2022/08/26 03:54:58;;;;;;;9.83;4.33;;;;;;;;;;5008602;28;20168;-83
2022/08/26 03:57:23;;;;;;;5.10;4.63;;;;;;;;;;5008511;28;20172;-83
2022/08/26 03:59:48;;;;;;;10.70;7.60;;;;;;;;;;5008044;28;20175;-81
2022/08/26 04:02:13;;;;;;;6.63;5.17;;;;;;;;;;5007891;28;20561;-83
2022/08/26 04:04:39;;;;;;;6.27;4.43;;;;;;;;;;4993071;28;20286;-82
2022/08/26 04:07:04;;;;;;;4.60;4.17;;;;;;;;;;5008849;28;20196;-82
2022/08/26 04:09:29;;;;;;;5.27;4.53;;;;;;;;;;5018483;28;20182;-83
2022/08/26 04:11:57;;;;;;;6.07;4.53;;;;;;;;;;5011155;28;20209;-80
2022/08/26 04:14:23;;;;;;;5.30;3.77;;;;;;;;;;5011825;28;20194;-84
2022/08/26 04:16:49;;;;;;;6.00;3.90;;;;;;;;;;5012563;28;20178;-84
2022/08/26 04:19:14;;;;;;;4.53;4.13;;;;;;;;;;5011121;28;20171;-82
2022/08/26 04:21:40;;;;;;;5.07;4.40;;;;;;;;;;5011342;28;20185;-83
2022/08/26 04:24:06;;;;;;;5.27;4.50;;;;;;;;;;5007671;28;20246;-83
2022/08/26 04:26:35;;;;;;;6.73;5.13;;;;;;;;;;4991362;28;20540;-82
2022/08/26 04:29:02;;;;;;;4.43;4.13;;;;;;;;;;4989826;28;20182;-83
2022/08/26 04:31:28;;;;;;;5.40;4.50;;;;;;;;;;5007783;28;20179;-83
2022/08/26 04:33:55;;;;;;;5.07;4.57;;;;;;;;;;4999963;28;20199;-81
2022/08/26 04:36:22;;;;;;;4.77;4.37;;;;;;;;;;5025791;28;20188;-83
2022/08/26 04:38:49;;;;;;;5.10;4.60;;;;;;;;;;5010742;28;20181;-82
2022/08/26 04:41:15;;;;;;;5.80;3.80;;;;;;;;;;5003559;28;20205;-82
2022/08/26 04:43:40;;;;;;;4.30;3.90;;;;;;;;;;5010719;28;20298;-83
2022/08/26 04:46:06;;;;;;;7.00;3.70;;;;;;;;;;5011739;28;20177;-82
2022/08/26 04:48:32;;;;;;;5.97;4.60;;;;;;;;;;5010596;28;20201;-83
2022/08/26 04:50:58;;;;;;;5.77;5.07;;;;;;;;;;5010712;28;20182;-80
2022/08/26 04:53:24;;;;;;;5.00;4.50;;;;;;;;;;5011794;28;20189;-82
2022/08/26 04:55:49;;;;;;;4.00;3.70;;;;;;;;;;5010691;28;20264;-81
2022/08/26 04:58:16;;;;;;;4.53;4.23;;;;;;;;;;5007155;28;20313;-83
2022/08/26 05:00:42;;;;;;;5.27;4.83;;;;;;;;;;4990596;28;20228;-82
2022/08/26 05:03:07;;;;;;;4.50;4.07;;;;;;;;;;4992103;28;20196;-83
2022/08/26 05:05:32;;;;;;;4.40;4.00;;;;;;;;;;4991042;28;20177;-83
2022/08/26 05:07:57;;;;;;;4.17;3.70;;;;;;;;;;5006929;28;20188;-83
2022/08/26 05:10:23;;;;;;;4.60;4.10;;;;;;;;;;5009400;28;20177;-83
2022/08/26 05:12:48;;;;;;;5.33;4.30;;;;;;;;;;5009460;28;20172;-83
2022/08/26 05:15:13;;;;;;;4.67;4.23;;;;;;;;;;4990683;28;20201;-83
2022/08/26 05:17:38;;;;;;;4.50;3.93;;;;;;;;;;5007172;28;20169;-83
2022/08/26 05:20:04;;;;;;;4.10;3.77;;;;;;;;;;5015131;28;20306;-83
2022/08/26 05:22:29;;;;;;;3.83;3.53;;;;;;;;;;5016170;28;20184;-82
2022/08/26 05:24:54;;;;;;;4.70;4.30;;;;;;;;;;5011133;28;20173;-81
2022/08/26 05:27:19;;;;;;;4.17;3.80;;;;;;;;;;5009681;28;20183;-83
2022/08/26 05:29:45;;;;;;;6.07;4.37;;;;;;;;;;5009421;28;20239;-83
2022/08/26 05:32:10;;;;;;;4.53;4.13;;;;;;;;;;4997239;28;20176;-82
2022/08/26 05:34:36;;;;;;;5.10;4.63;;;;;;;;;;5010710;28;20565;-81
2022/08/26 05:37:03;;;;;;;5.00;4.57;;;;;;;;;;5010463;28;20209;-81
2022/08/26 05:39:30;;;;;;;5.17;3.77;;;;;;;;;;5009761;28;20180;-81
2022/08/26 05:41:55;;;;;;;4.57;4.13;;;;;;;;;;5010254;28;20181;-82
2022/08/26 05:44:20;;;;;;;4.20;3.90;;;;;;;;;;5009709;28;20188;-80
2022/08/26 05:46:46;;;;;;;3.90;3.53;;;;;;;;;;5009482;28;20181;-82
2022/08/26 05:49:12;;;;;;;6.00;4.20;;;;;;;;;;4990165;28;20215;-78
2022/08/26 05:51:38;;;;;;;3.93;3.63;;;;;;;;;;4991182;28;20208;-83
2022/08/26 05:54:05;;;;;;;5.00;4.00;;;;;;;;;;5006662;28;20205;-82
2022/08/26 05:56:30;;;;;;;4.07;3.77;;;;;;;;;;4990813;28;20194;-83
2022/08/26 05:58:56;;;;;;;4.70;4.30;;;;;;;;;;5006528;28;20206;-83
2022/08/26 06:01:24;;;;;;;4.93;3.97;;;;;;;;;;4990665;28;20227;-81
2022/08/26 06:03:51;;;;;;;4.60;4.30;;;;;;;;;;5006923;28;20189;-82
2022/08/26 06:06:17;;;;;;;4.60;4.20;;;;;;;;;;5006428;28;20174;-83
2022/08/26 06:08:43;;;;;;;4.50;4.10;;;;;;;;;;5007224;28;20183;-83
2022/08/26 06:11:10;;;;;;;5.03;4.10;;;;;;;;;;5004663;28;20559;-83
2022/08/26 06:13:35;;;;;;;6.80;6.30;;;;;;;;;;5009230;28;20564;-83
2022/08/26 06:16:02;;;;;;;7.17;4.47;;;;;;;;;;5009797;28;20188;-83
2022/08/26 06:18:31;;;;;;;4.37;4.03;;;;;;;;;;5010439;28;20178;-81
2022/08/26 06:20:57;;;;;;;4.67;4.30;;;;;;;;;;5026792;28;20201;-84
2022/08/26 06:26:06;;;;;;;5.33;4.30;;;;;;;;;;5010786;28;20201;-83
2022/08/26 06:28:31;;;;;;;5.53;4.43;;;;;;;;;;5009359;28;20175;-78
2022/08/26 06:30:57;;;;;;;5.80;4.07;;;;;;;;;;5009436;28;20164;-80
2022/08/26 06:33:23;;;;;;;4.63;4.03;;;;;;;;;;5006783;28;20210;-80
2022/08/26 06:35:49;;;;;;;4.27;3.97;;;;;;;;;;5004698;28;20173;-81
2022/08/26 06:38:15;;;;;;;4.40;4.00;;;;;;;;;;5006148;28;20188;-81
2022/08/26 06:40:47;;;;;;;4.37;4.07;;;;;;;;;;4997474;28;20172;-79
2022/08/26 06:43:13;;;;;;;5.70;4.83;;;;;;;;;;5009443;28;20176;-80
2022/08/26 06:45:39;;;;;;;4.30;4.00;;;;;;;;;;5009887;28;20176;-84
2022/08/26 06:48:05;;;;;;;4.70;4.30;;;;;;;;;;4993256;28;20192;-81
2022/08/26 06:50:30;;;;;;;5.10;4.70;;;;;;;;;;4989558;28;20202;-82
2022/08/26 06:52:55;;;;;;;4.57;4.10;;;;;;;;;;5008237;28;20206;-83
2022/08/26 06:55:21;;;;;;;4.20;3.90;;;;;;;;;;4995026;28;20261;-83
2022/08/26 06:57:46;;;;;;;4.63;4.30;;;;;;;;;;4994168;28;20180;-84
2022/08/26 07:00:11;;;;;;;4.67;4.00;;;;;;;;;;5013238;28;20269;-84
2022/08/26 07:02:37;;;;;;;5.20;4.80;;;;;;;;;;5012616;28;20231;-82
2022/08/26 07:05:02;;;;;;;4.67;4.37;;;;;;;;;;5013795;28;20224;-82
2022/08/26 07:07:28;;;;;;;4.77;4.37;;;;;;;;;;5014184;28;20165;-84
2022/08/26 07:09:53;;;;;;;6.70;4.23;;;;;;;;;;5013339;28;20208;-84
2022/08/26 07:12:19;;;;;;;4.93;4.53;;;;;;;;;;5009122;28;20184;-84
2022/08/26 07:14:44;;;;;;;4.50;4.10;;;;;;;;;;5008997;28;20278;-81
2022/08/26 07:17:09;;;;;;;4.30;4.00;;;;;;;;;;5009233;28;20206;-83
2022/08/26 07:19:34;;;;;;;4.60;4.30;;;;;;;;;;5025046;28;20170;-84
2022/08/26 07:22:01;;;;;;;4.50;4.20;;;;;;;;;;5032543;28;20446;-84
2022/08/26 07:24:27;;;;;;;4.70;4.30;;;;;;;;;;5032357;28;20185;-83
2022/08/26 07:26:52;;;;;;;4.70;4.30;;;;;;;;;;5032276;28;20207;-80
2022/08/26 07:29:17;;;;;;;4.73;4.20;;;;;;;;;;5022839;28;20179;-78
2022/08/26 07:31:43;;;;;;;4.90;4.50;;;;;;;;;;5009092;28;20179;-82
2022/08/26 07:34:09;;;;;;;5.20;4.70;;;;;;;;;;5016911;28;20217;-81
2022/08/26 07:36:34;;;;;;;5.13;4.73;;;;;;;;;;5012893;28;20249;-82
2022/08/26 07:39:00;;;;;;;5.40;4.80;;;;;;;;;;5013357;28;20325;-82
2022/08/26 07:41:25;;;;;;;5.93;5.40;;;;;;;;;;5012098;28;20463;-80
2022/08/26 07:43:51;;;;;;;7.20;6.50;;;;;;;;;;5012864;28;20184;-80
2022/08/26 07:46:19;;;;;;;5.53;5.03;;;;;;;;;;5008686;28;20193;-80
2022/08/26 07:48:46;;;;;;;5.90;4.55;;;;;;;;;;4992232;28;20180;-82
2022/08/26 07:51:13;;;;;;;4.93;4.53;;;;;;;;;;4992285;28;20176;-82
2022/08/26 07:53:39;;;;;;;7.43;6.00;;;;;;;;;;4993212;28;20194;-81
2022/08/26 07:56:04;;;;;;;6.72;5.10;;;;;;;;;;4992353;28;20167;-80
2022/08/26 07:58:29;;;;;;;5.18;4.68;;;;;;;;;;4992057;28;20211;-81
2022/08/26 08:00:54;;;;;;;5.90;5.40;;;;;;;;;;4992028;28;20323;-80
2022/08/26 08:03:23;;;;;;;5.78;5.28;;;;;;;;;;4996323;28;20187;-79
2022/08/26 08:05:48;;;;;;;8.20;5.40;;;;;;;;;;5011383;28;20199;-81
2022/08/26 08:08:14;;;;;;;6.47;5.93;;;;;;;;;;5011356;28;20302;-82
2022/08/26 08:10:40;;;;;;;9.05;8.13;;;;;;;;;;5027495;28;20176;-80
2022/08/26 08:13:06;;;;;;;6.70;6.10;;;;;;;;;;5010852;28;20187;-80
2022/08/26 08:15:32;;;;;;;6.40;5.05;;;;;;;;;;5011861;28;20179;-82
2022/08/26 08:17:57;;;;;;;5.35;4.85;;;;;;;;;;5011556;28;20179;-82
2022/08/26 08:20:22;;;;;;;5.57;4.97;;;;;;;;;;5007820;28;20176;-79
2022/08/26 08:22:48;;;;;;;5.97;5.38;;;;;;;;;;5024029;28;20175;-82
2022/08/26 08:25:14;;;;;;;7.28;5.75;;;;;;;;;;5031314;28;20309;-82
2022/08/26 08:27:40;;;;;;;5.63;4.95;;;;;;;;;;5030541;28;20190;-81
2022/08/26 08:30:06;;;;;;;4.97;4.18;;;;;;;;;;5030978;28;20258;-82
2022/08/26 08:32:32;;;;;;;5.50;4.95;;;;;;;;;;5027468;28;20167;-80
2022/08/26 08:34:58;;;;;;;5.80;5.00;;;;;;;;;;5011059;28;20206;-82
2022/08/26 08:37:24;;;;;;;5.78;5.28;;;;;;;;;;5007612;28;20188;-82
2022/08/26 08:39:49;;;;;;;5.28;4.88;;;;;;;;;;4992196;28;20165;-83
2022/08/26 08:42:33;;;;;;;6.65;4.90;;;;;;;;;;5010499;28;20183;-83
2022/08/26 08:45:02;;;;;;;7.93;5.45;;;;;;;;;;5011012;28;20183;-81
2022/08/26 08:47:33;;;;;;;5.95;4.82;;;;;;;;;;5009602;28;20194;-82
2022/08/26 08:50:01;;;;;;;6.50;5.78;;;;;;;;;;5011206;28;20302;-82
2022/08/26 08:52:29;;;;;;;5.53;5.00;;;;;;;;;;5010709;28;20226;-82
2022/08/26 08:54:55;;;;;;;7.57;5.82;;;;;;;;;;5007100;28;20534;-82
2022/08/26 08:57:30;;;;;;;6.10;5.60;;;;;;;;;;4991099;28;20259;-80
2022/08/26 09:00:07;;;;;;;7.45;6.25;;;;;;;;;;4991248;28;20187;-82
2022/08/26 09:02:35;;;;;;;6.20;5.70;;;;;;;;;;4990504;28;20228;-83
2022/08/26 09:05:04;;;;;;;6.60;5.95;;;;;;;;;;5007036;28;20168;-82
2022/08/26 09:07:48;;;;;;;5.68;5.18;;;;;;;;;;4990861;28;20426;-82
2022/08/26 09:10:29;;;;;;;6.25;5.65;;;;;;;;;;5007915;28;20189;-83
2022/08/26 09:12:54;;;;;;;9.75;5.70;;;;;;;;;;5010179;28;20219;-83
2022/08/26 09:15:23;;;;;;;6.13;5.45;;;;;;;;;;5009746;28;20199;-79
2022/08/26 09:17:58;;;;;;;6.40;5.90;;;;;;;;;;5010368;28;20193;-81
2022/08/26 09:20:30;;;;;;;6.80;5.82;;;;;;;;;;5010085;28;20185;-79
2022/08/26 09:22:55;;;;;;;7.20;5.82;;;;;;;;;;5028449;28;20175;-83
2022/08/26 09:25:20;;;;;;;7.78;5.88;;;;;;;;;;5029900;28;20175;-82
2022/08/26 09:27:47;;;;;;;6.55;5.45;;;;;;;;;;5029384;28;20189;-79
2022/08/26 09:30:14;;;;;;;6.85;6.18;;;;;;;;;;5006581;28;20172;-82
2022/08/26 09:32:40;;;;;;;6.25;5.43;;;;;;;;;;4994786;28;20182;-82
2022/08/26 09:35:08;;;;;;;6.45;5.68;;;;;;;;;;5001874;28;20289;-81
2022/08/26 09:37:34;;;;;;;8.25;5.78;;;;;;;;;;4991653;28;20176;-82
2022/08/26 09:40:16;;;;;;;6.50;5.68;;;;;;;;;;5007767;28;20168;-82
2022/08/26 09:42:41;;;;;;;8.30;6.55;;;;;;;;;;5003774;28;20567;-83
2022/08/26 09:45:09;;;;;;;7.40;5.32;;;;;;;;;;5010597;28;20184;-83
2022/08/26 09:47:34;;;;;;;7.50;5.93;;;;;;;;;;5011247;28;20258;-82
2022/08/26 09:50:03;;;;;;;6.57;5.97;;;;;;;;;;5010765;28;20262;-81
2022/08/26 09:52:28;;;;;;;7.97;7.15;;;;;;;;;;5009777;28;20172;-80
2022/08/26 09:55:00;;;;;;;9.05;6.60;;;;;;;;;;5009511;28;20252;-81
2022/08/26 09:57:27;;;;;;;6.38;5.53;;;;;;;;;;5010925;28;20179;-81
2022/08/26 09:59:52;;;;;;;8.63;6.05;;;;;;;;;;5010345;28;20233;-82
2022/08/26 10:02:30;;;;;;;7.50;6.55;;;;;;;;;;5008591;28;20269;-82
2022/08/26 10:04:56;;;;;;;7.43;5.60;;;;;;;;;;5026179;28;20438;-82
2022/08/26 10:07:37;;;;;;;8.25;6.22;;;;;;;;;;5010696;28;20171;-82
2022/08/26 10:10:04;;;;;;;9.38;6.75;;;;;;;;;;5024856;28;20184;-83
2022/08/26 10:12:32;;;;;;;9.05;6.65;;;;;;;;;;5025780;28;20225;-82
2022/08/26 10:15:01;;;;;;;6.25;5.68;;;;;;;;;;5011184;28;20293;-82
2022/08/26 10:17:45;;;;;;;7.43;5.30;;;;;;;;;;5010721;28;20167;-82
2022/08/26 10:20:22;;;;;;;8.85;6.60;;;;;;;;;;4998559;28;20176;-82
2022/08/26 10:22:47;;;;;;;8.68;5.82;;;;;;;;;;5006264;28;20264;-81
2022/08/26 10:25:16;;;;;;;8.77;5.80;;;;;;;;;;5006145;28;20259;-83
2022/08/26 10:27:51;;;;;;;8.25;6.57;;;;;;;;;;5009969;28;20202;-82
2022/08/26 10:30:17;;;;;;;6.35;5.75;;;;;;;;;;4995194;28;20175;-82
2022/08/26 10:32:55;;;;;;;9.05;6.45;;;;;;;;;;4999245;28;20183;-83
2022/08/26 10:35:20;;;;;;;9.75;6.78;;;;;;;;;;5013204;28;20199;-82
2022/08/26 10:38:06;;;;;;;7.03;6.35;;;;;;;;;;4998155;28;20172;-81
2022/08/26 10:40:31;;;;;;;7.93;6.55;;;;;;;;;;5014950;28;20263;-82
2022/08/26 10:43:02;;;;;;;8.13;6.03;;;;;;;;;;5016348;28;20195;-82
2022/08/26 10:45:30;;;;;;;6.70;6.10;;;;;;;;;;5013425;28;20167;-79
2022/08/26 10:50:42;;;;;;;7.68;6.10;;;;;;;;;;5136881;22;20241;-80
2022/08/26 10:53:27;;;;;;;9.38;6.15;;;;;;;;;;5049334;28;20296;-82
2022/08/26 10:56:08;;;;;;;6.47;5.88;;;;;;;;;;5032851;28;20173;-80
2022/08/26 10:58:45;;;;;;;8.32;5.97;;;;;;;;;;5033873;28;20175;-81
2022/08/26 11:04:08;;;;;;;6.85;6.25;;;;;;;;;;5034247;28;20217;-81
2022/08/26 11:06:34;;;;;;;7.38;6.20;;;;;;;;;;5032486;28;20178;-81
2022/08/26 11:09:02;;;;;;;11.18;6.72;;;;;;;;;;5039947;28;20178;-82
2022/08/26 11:11:39;;;;;;;13.63;6.75;;;;;;;;;;5040829;28;20178;-81
2022/08/26 11:14:04;;;;;;;8.27;6.82;;;;;;;;;;5052328;28;20186;-81
2022/08/26 11:16:31;;;;;;;6.82;5.90;;;;;;;;;;5053192;28;20301;-82
2022/08/26 11:18:56;;;;;;;8.35;6.47;;;;;;;;;;5053271;28;20167;-82
2022/08/26 11:21:40;;;;;;;8.50;7.03;;;;;;;;;;5053118;28;20169;-82
2022/08/26 11:24:05;;;;;;;7.05;6.35;;;;;;;;;;5053572;28;20166;-81
2022/08/26 11:26:34;;;;;;;6.45;5.80;;;;;;;;;;5052059;28;20181;-82
2022/08/26 11:29:00;;;;;;;9.20;6.38;;;;;;;;;;5048369;28;20270;-82
2022/08/26 11:31:25;;;;;;;8.60;6.72;;;;;;;;;;5048924;28;20178;-82
2022/08/26 11:33:50;;;;;;;7.10;6.20;;;;;;;;;;5057610;28;20212;-82
2022/08/26 11:36:32;;;;;;;6.80;6.13;;;;;;;;;;5073182;28;20440;-82
2022/08/26 11:38:57;;;;;;;6.55;5.93;;;;;;;;;;5071165;28;20173;-81
2022/08/26 11:41:27;;;;;;;7.05;5.97;;;;;;;;;;5068873;28;20169;-82
2022/08/26 11:43:54;;;;;;;6.40;5.60;;;;;;;;;;5052099;28;20178;-81
2022/08/26 11:46:23;;;;;;;6.55;5.82;;;;;;;;;;5052766;28;20177;-79
2022/08/26 11:48:48;;;;;;;8.27;6.55;;;;;;;;;;5051001;28;20204;-81
2022/08/26 11:51:21;;;;;;;6.22;5.63;;;;;;;;;;5052701;28;20182;-81
2022/08/26 11:53:46;;;;;;;6.72;6.13;;;;;;;;;;5051202;28;20198;-81
2022/08/26 11:56:24;;;;;;;9.10;6.82;;;;;;;;;;5052621;28;20162;-82
2022/08/26 11:58:51;;;;;;;5.88;5.28;;;;;;;;;;5052593;28;20178;-81
2022/08/26 12:01:24;;;;;;;8.15;6.13;;;;;;;;;;5052181;28;20178;-82
2022/08/26 12:03:50;;;;;;;7.35;6.75;;;;;;;;;;5051161;28;20232;-79
2022/08/26 12:06:27;;;;;;;7.43;6.70;;;;;;;;;;5051075;28;20182;-82
2022/08/26 12:08:54;;;;;;;6.65;6.00;;;;;;;;;;5056842;28;20185;-81
2022/08/26 12:11:24;;;;;;;7.57;6.32;;;;;;;;;;5055903;28;20182;-82
2022/08/26 12:13:53;;;;;;;6.07;5.47;;;;;;;;;;5056460;28;20198;-81
2022/08/26 12:16:22;;;;;;;6.28;5.68;;;;;;;;;;5051115;28;20177;-82
2022/08/26 12:18:48;;;;;;;7.45;5.40;;;;;;;;;;5057759;28;20182;-81
2022/08/26 12:21:18;;;;;;;5.80;5.18;;;;;;;;;;5067718;28;20177;-81
2022/08/26 12:23:45;;;;;;;5.78;5.30;;;;;;;;;;5086735;28;20177;-82
2022/08/26 12:26:29;;;;;;;6.88;5.07;;;;;;;;;;5071142;28;20196;-81
2022/08/26 12:28:54;;;;;;;5.57;5.07;;;;;;;;;;5070757;28;20226;-79
2022/08/26 12:31:22;;;;;;;6.15;4.68;;;;;;;;;;5071603;28;20170;-80
2022/08/26 12:33:50;;;;;;;5.80;5.30;;;;;;;;;;5064488;28;20210;-82
2022/08/26 12:36:26;;;;;;;10.43;5.40;;;;;;;;;;5053631;28;20170;-81
2022/08/26 12:38:52;;;;;;;6.03;5.53;;;;;;;;;;5050769;28;20486;-82
2022/08/26 12:41:43;;;;;;;6.03;5.22;;;;;;;;;;5055199;28;20320;-80
2022/08/26 12:44:29;;;;;;;5.55;5.05;;;;;;;;;;5048099;28;20297;-81
2022/08/26 12:46:59;;;;;;;6.28;5.68;;;;;;;;;;5055453;28;20234;-82
2022/08/26 12:49:25;;;;;;;5.88;5.22;;;;;;;;;;5062348;28;20301;-80
2022/08/26 12:51:51;;;;;;;5.57;5.07;;;;;;;;;;5071764;28;20441;-77
2022/08/26 12:56:44;;;;;;;5.30;4.75;;;;;;;;;;5064025;28;20233;-81
2022/08/26 12:59:24;;;;;;;5.40;4.90;;;;;;;;;;5067391;28;20176;-78
2022/08/26 13:01:51;;;;;;;6.25;5.30;;;;;;;;;;5070251;28;20166;-81
2022/08/26 13:04:33;;;;;;;8.30;5.75;;;;;;;;;;5071150;28;20248;-80
2022/08/26 13:07:11;;;;;;;6.88;5.03;;;;;;;;;;5070815;28;20161;-79
2022/08/26 13:09:37;;;;;;;6.35;4.53;;;;;;;;;;5070982;28;20185;-82
2022/08/26 13:12:02;;;;;;;5.13;4.72;;;;;;;;;;5062858;28;20170;-81
2022/08/26 13:14:27;;;;;;;7.88;5.28;;;;;;;;;;5070047;28;20214;-81
2022/08/26 13:16:52;;;;;;;5.27;4.77;;;;;;;;;;5069532;28;20170;-81
2022/08/26 13:19:19;;;;;;;5.07;4.68;;;;;;;;;;5063488;28;20453;-82
2022/08/26 13:21:48;;;;;;;7.07;4.53;;;;;;;;;;5058532;28;20172;-81
2022/08/26 13:24:15;;;;;;;4.50;4.10;;;;;;;;;;5069660;28;20201;-80
2022/08/26 13:26:42;;;;;;;5.13;4.63;;;;;;;;;;5069254;28;20267;-82
2022/08/26 13:29:07;;;;;;;5.47;4.97;;;;;;;;;;5070828;28;20177;-81
2022/08/26 13:31:34;;;;;;;4.70;4.30;;;;;;;;;;5070640;28;20184;-80
2022/08/26 13:33:59;;;;;;;5.20;4.57;;;;;;;;;;5050585;28;20219;-81
2022/08/26 13:36:24;;;;;;;5.15;4.65;;;;;;;;;;5054985;28;20178;-81
2022/08/26 13:38:50;;;;;;;8.52;5.15;;;;;;;;;;5030640;28;20169;-79
2022/08/26 13:41:15;;;;;;;5.28;4.80;;;;;;;;;;5056524;28;20185;-81
2022/08/26 13:43:41;;;;;;;4.90;4.57;;;;;;;;;;5036046;28;20190;-81
2022/08/26 13:46:06;;;;;;;7.30;4.78;;;;;;;;;;5029691;28;20236;-79
2022/08/26 13:48:32;;;;;;;9.02;5.82;;;;;;;;;;5028835;28;20233;-82
2022/08/26 13:51:01;;;;;;;5.18;4.40;;;;;;;;;;5029399;28;20183;-82
2022/08/26 13:53:28;;;;;;;6.13;4.82;;;;;;;;;;5030748;28;20195;-80
2022/08/26 13:55:53;;;;;;;4.95;4.55;;;;;;;;;;5029287;28;20215;-80
2022/08/26 13:58:19;;;;;;;5.35;4.85;;;;;;;;;;5029501;28;20175;-81
2022/08/26 14:00:44;;;;;;;4.88;4.40;;;;;;;;;;5029657;28;20530;-78
2022/08/26 14:03:10;;;;;;;5.47;5.05;;;;;;;;;;5028756;28;20175;-80
2022/08/26 14:05:35;;;;;;;5.88;5.22;;;;;;;;;;5030444;28;20167;-81
2022/08/26 14:08:00;;;;;;;6.18;5.45;;;;;;;;;;5029203;28;20181;-81
2022/08/26 14:10:26;;;;;;;5.90;5.40;;;;;;;;;;5046730;28;20206;-81
2022/08/26 14:12:51;;;;;;;6.20;5.60;;;;;;;;;;5065741;28;20174;-82
2022/08/26 14:15:17;;;;;;;5.20;4.80;;;;;;;;;;5049336;28;20209;-80
2022/08/26 14:17:43;;;;;;;7.22;5.43;;;;;;;;;;5041042;28;20224;-82
2022/08/26 14:20:11;;;;;;;6.13;5.57;;;;;;;;;;5041747;28;20170;-80
2022/08/26 14:22:37;;;;;;;5.78;5.28;;;;;;;;;;5048979;28;20412;-81
2022/08/26 14:25:03;;;;;;;5.85;5.35;;;;;;;;;;5049092;28;20178;-80
2022/08/26 14:27:28;;;;;;;5.63;5.13;;;;;;;;;;5049357;28;20386;-81
2022/08/26 14:29:53;;;;;;;5.55;5.07;;;;;;;;;;5049443;28;20210;-81
2022/08/26 14:32:24;;;;;;;5.35;4.85;;;;;;;;;;5048799;28;20184;-82
2022/08/26 14:34:49;;;;;;;8.55;6.43;;;;;;;;;;5049312;28;20273;-81
2022/08/26 14:37:15;;;;;;;6.15;4.55;;;;;;;;;;5048865;28;20208;-81
2022/08/26 14:39:40;;;;;;;5.47;4.80;;;;;;;;;;5048893;28;20375;-80
2022/08/26 14:42:05;;;;;;;5.47;4.90;;;;;;;;;;5040744;28;20178;-81
2022/08/26 14:44:31;;;;;;;7.53;5.13;;;;;;;;;;5030424;28;20167;-81
2022/08/26 14:47:01;;;;;;;5.65;5.07;;;;;;;;;;5037657;28;20184;-81
2022/08/26 14:49:26;;;;;;;5.50;4.97;;;;;;;;;;5048480;28;20178;-81
2022/08/26 14:51:51;;;;;;;5.38;4.93;;;;;;;;;;5040701;28;20198;-80
2022/08/26 14:54:17;;;;;;;6.40;5.57;;;;;;;;;;5088741;23;20244;-72